Time;durP1;ratioP1;P1;durP2;ratioP2;P2;SDS_P1;SDS_P2;PMS_P1;PMS_P2;Temp;Humidity;BMP_temperature;BMP_pressure;BME280_temperature;BME280_humidity;BME280_pressure;Samples;Min_cycle;Max_cycle;Signal;HPM_P1;HPM_P2
2022/03/31 00:00:11;;;;;;;;;;;4.50;99.90;;;;;;4967438;29;19934;-87
2022/03/31 00:02:38;;;;;;;;;;;2.70;99.90;;;;;;4958948;28;19989;-88
2022/03/31 00:05:05;;;;;;;;;;;3.70;99.90;;;;;;4957311;29;19986;-89
2022/03/31 00:07:34;;;;;;;;;;;2.60;99.90;;;;;;4957286;29;19926;-88
2022/03/31 00:10:01;;;;;;;;;;;2.50;99.90;;;;;;4957132;29;20021;-89
2022/03/31 00:12:27;;;;;;;;;;;2.50;99.90;;;;;;4957441;28;19926;-88
2022/03/31 00:14:54;;;;;;;;;;;2.60;99.90;;;;;;4956644;29;20274;-87
2022/03/31 00:17:21;;;;;;;;;;;2.50;99.90;;;;;;4956789;29;19933;-88
2022/03/31 00:19:48;;;;;;;;;;;2.50;99.90;;;;;;4956541;29;19927;-88
2022/03/31 00:22:15;;;;;;;;;;;2.40;99.90;;;;;;4957499;28;19930;-87
2022/03/31 00:24:43;;;;;;;;;;;2.00;99.90;;;;;;4956923;29;19954;-88
2022/03/31 00:27:11;;;;;;;;;;;4.40;99.90;;;;;;4956975;29;19926;-89
2022/03/31 00:29:38;;;;;;;;;;;2.10;99.90;;;;;;4956743;29;19926;-88
2022/03/31 00:32:05;;;;;;;;;;;1.80;99.90;;;;;;4967398;28;19997;-87
2022/03/31 00:34:34;;;;;;;;;;;2.10;99.90;;;;;;4975590;28;19930;-87
2022/03/31 00:37:01;;;;;;;;;;;2.20;99.90;;;;;;4975609;28;19948;-87
2022/03/31 00:39:32;;;;;;;;;;;2.10;99.90;;;;;;4975587;28;19926;-87
2022/03/31 00:42:01;;;;;;;;;;;2.00;99.90;;;;;;4975181;28;19926;-88
2022/03/31 00:44:28;;;;;;;;;;;2.00;99.90;;;;;;4975741;28;20357;-87
2022/03/31 00:46:55;;;;;;;;;;;1.90;99.90;;;;;;4975581;28;19933;-88
2022/03/31 00:49:22;;;;;;;;;;;1.80;99.90;;;;;;4976216;28;19926;-86
2022/03/31 00:51:50;;;;;;;;;;;1.80;99.90;;;;;;4975541;28;20297;-87
2022/03/31 00:54:19;;;;;;;;;;;2.00;99.90;;;;;;4975769;28;19933;-87
2022/03/31 00:56:47;;;;;;;;;;;0.60;99.90;;;;;;4975977;28;19930;-87
2022/03/31 00:59:15;;;;;;;;;;;1.70;99.90;;;;;;4975963;28;19927;-88
2022/03/31 01:01:44;;;;;;;;;;;1.60;99.90;;;;;;4965822;28;20317;-87
2022/03/31 01:04:11;;;;;;;;;;;2.00;99.90;;;;;;4956156;29;19934;-87
2022/03/31 01:06:38;;;;;;;;;;;1.70;99.90;;;;;;4956340;29;20360;-88
2022/03/31 01:09:05;;;;;;;;;;;2.40;99.90;;;;;;4955861;29;19931;-88
2022/03/31 01:11:33;;;;;;;;;;;1.60;99.90;;;;;;4958156;28;19927;-88
2022/03/31 01:14:00;;;;;;;;;;;1.60;99.90;;;;;;4975289;28;19953;-88
2022/03/31 01:16:29;;;;;;;;;;;0.70;99.90;;;;;;4974909;28;19933;-87
2022/03/31 01:18:56;;;;;;;;;;;1.60;99.90;;;;;;4975276;28;20369;-88
2022/03/31 01:21:23;;;;;;;;;;;1.60;99.90;;;;;;4974701;28;19930;-88
2022/03/31 01:23:54;;;;;;;;;;;1.60;99.90;;;;;;4975296;28;19926;-88
2022/03/31 01:26:21;;;;;;;;;;;1.60;99.90;;;;;;4974886;28;20020;-88
2022/03/31 01:28:49;;;;;;;;;;;1.70;99.90;;;;;;4975108;28;19927;-88
2022/03/31 01:31:16;;;;;;;;;;;1.30;99.90;;;;;;4974794;28;20016;-88
2022/03/31 01:33:43;;;;;;;;;;;1.70;99.90;;;;;;4955771;29;19926;-87
2022/03/31 01:36:10;;;;;;;;;;;1.70;99.90;;;;;;4955528;29;19972;-88
2022/03/31 01:38:37;;;;;;;;;;;1.70;99.90;;;;;;4955769;29;19949;-88
2022/03/31 01:41:05;;;;;;;;;;;1.70;99.90;;;;;;4955507;29;20301;-87
2022/03/31 01:43:32;;;;;;;;;;;1.60;99.90;;;;;;4973264;28;19930;-88
2022/03/31 01:45:59;;;;;;;;;;;1.70;99.90;;;;;;4974352;28;20308;-87
2022/03/31 01:48:26;;;;;;;;;;;2.00;99.90;;;;;;4975167;28;19930;-87
2022/03/31 01:50:53;;;;;;;;;;;1.80;99.90;;;;;;4978211;28;19926;-88
2022/03/31 01:53:20;;;;;;;;;;;1.90;99.90;;;;;;4961397;28;20373;-88
2022/03/31 01:55:47;;;;;;;;;;;2.70;99.90;;;;;;4958739;29;20285;-88
2022/03/31 01:58:16;;;;;;;;;;;2.00;99.90;;;;;;4959062;29;20369;-88
2022/03/31 02:00:42;;;;;;;;;;;1.70;99.90;;;;;;4960804;28;19927;-88
2022/03/31 02:03:09;;;;;;;;;;;1.90;99.90;;;;;;4977847;28;19949;-89
2022/03/31 02:05:36;;;;;;;;;;;1.90;99.90;;;;;;4977804;28;19926;-87
2022/03/31 02:08:03;;;;;;;;;;;1.60;99.90;;;;;;4978807;28;19949;-86
2022/03/31 02:10:30;;;;;;;;;;;1.90;99.90;;;;;;4989068;28;20352;-86
2022/03/31 02:12:57;;;;;;;;;;;1.90;99.90;;;;;;4976836;28;19934;-86
2022/03/31 02:15:26;;;;;;;;;;;1.50;99.90;;;;;;4971344;29;19978;-85
2022/03/31 02:17:54;;;;;;;;;;;2.20;99.90;;;;;;4968935;29;19927;-87
2022/03/31 02:20:20;;;;;;;;;;;3.90;99.90;;;;;;4960035;29;20396;-88
2022/03/31 02:22:47;;;;;;;;;;;1.90;99.90;;;;;;4969084;28;20288;-88
2022/03/31 02:25:14;;;;;;;;;;;1.90;99.90;;;;;;4961499;28;19927;-87
2022/03/31 02:27:41;;;;;;;;;;;2.10;99.90;;;;;;4958845;29;19937;-87
2022/03/31 02:30:08;;;;;;;;;;;2.00;99.90;;;;;;4958405;29;19926;-86
2022/03/31 02:32:37;;;;;;;;;;;1.90;99.90;;;;;;4966414;28;19981;-87
2022/03/31 02:35:05;;;;;;;;;;;1.90;99.90;;;;;;4967259;28;19933;-87
2022/03/31 02:37:32;;;;;;;;;;;1.90;99.90;;;;;;4940970;29;19933;-87
2022/03/31 02:39:59;;;;;;;;;;;4.10;99.90;;;;;;4958299;29;19926;-87
2022/03/31 02:42:26;;;;;;;;;;;1.70;99.90;;;;;;4965234;28;20028;-87
2022/03/31 02:44:52;;;;;;;;;;;1.60;99.90;;;;;;4977302;28;19926;-87
2022/03/31 02:47:19;;;;;;;;;;;1.60;99.90;;;;;;4977924;28;19926;-87
2022/03/31 02:49:48;;;;;;;;;;;4.20;99.90;;;;;;4977325;28;20423;-87
2022/03/31 02:52:14;;;;;;;;;;;1.60;99.90;;;;;;4975776;28;19926;-88
2022/03/31 02:57:34;;;;;;;;;;;1.30;99.90;;;;;;4953530;28;19926;-88
2022/03/31 03:00:03;;;;;;;;;;;1.30;99.90;;;;;;4976823;28;20320;-87
2022/03/31 03:02:30;;;;;;;;;;;1.50;99.90;;;;;;4959160;28;20395;-88
2022/03/31 03:04:58;;;;;;;;;;;3.90;99.90;;;;;;4957872;28;19926;-87
2022/03/31 03:07:26;;;;;;;;;;;1.60;99.90;;;;;;4957832;29;20001;-87
2022/03/31 03:09:53;;;;;;;;;;;1.70;99.90;;;;;;4957515;29;19930;-87
2022/03/31 03:12:20;;;;;;;;;;;4.40;99.90;;;;;;4974134;28;19934;-86
2022/03/31 03:14:47;;;;;;;;;;;0.40;99.90;;;;;;4976623;28;19926;-87
2022/03/31 03:17:14;;;;;;;;;;;2.00;99.90;;;;;;4977162;28;19957;-87
2022/03/31 03:19:40;;;;;;;;;;;1.70;99.90;;;;;;4977064;28;19931;-87
2022/03/31 03:22:09;;;;;;;;;;;1.80;99.90;;;;;;4967619;28;19972;-87
2022/03/31 03:24:36;;;;;;;;;;;1.70;99.90;;;;;;4957272;28;19926;-87
2022/03/31 03:27:03;;;;;;;;;;;1.70;99.90;;;;;;4957322;29;19927;-87
2022/03/31 03:29:30;;;;;;;;;;;0.40;99.90;;;;;;4964639;28;20030;-88
2022/03/31 03:31:57;;;;;;;;;;;3.80;99.90;;;;;;4976152;28;19984;-87
2022/03/31 03:34:24;;;;;;;;;;;1.70;99.90;;;;;;4976407;28;19926;-88
2022/03/31 03:36:52;;;;;;;;;;;-0.20;99.90;;;;;;4976536;28;20300;-88
2022/03/31 03:39:20;;;;;;;;;;;1.80;99.90;;;;;;4976167;28;20396;-88
2022/03/31 03:41:47;;;;;;;;;;;4.10;99.90;;;;;;4966175;28;20353;-88
2022/03/31 03:44:13;;;;;;;;;;;0.50;99.90;;;;;;4957183;29;20337;-88
2022/03/31 03:46:40;;;;;;;;;;;3.80;99.90;;;;;;4957550;28;20385;-88
2022/03/31 03:49:07;;;;;;;;;;;2.60;99.90;;;;;;4976190;28;19972;-88
2022/03/31 03:51:34;;;;;;;;;;;1.30;99.90;;;;;;4968523;28;20337;-87
2022/03/31 03:54:00;;;;;;;;;;;2.70;99.90;;;;;;4968434;28;20075;-88
2022/03/31 03:56:29;;;;;;;;;;;1.50;99.90;;;;;;4957771;28;19930;-87
2022/03/31 03:58:55;;;;;;;;;;;0.20;99.90;;;;;;4974451;28;19926;-87
2022/03/31 04:01:22;;;;;;;;;;;1.50;99.90;;;;;;4975019;28;19972;-88
2022/03/31 04:03:49;;;;;;;;;;;0.70;99.90;;;;;;4975872;28;19981;-87
2022/03/31 04:06:16;;;;;;;;;;;1.50;99.90;;;;;;4975822;28;19992;-88
2022/03/31 04:08:42;;;;;;;;;;;2.40;99.90;;;;;;4959382;28;19926;-88
2022/03/31 04:11:09;;;;;;;;;;;2.60;99.90;;;;;;4955579;28;19927;-88
2022/03/31 04:13:38;;;;;;;;;;;1.50;99.90;;;;;;4955862;29;19937;-88
2022/03/31 04:16:05;;;;;;;;;;;2.60;99.90;;;;;;4956601;28;19927;-87
2022/03/31 04:18:32;;;;;;;;;;;1.50;99.90;;;;;;4956552;29;19930;-88
2022/03/31 04:21:01;;;;;;;;;;;1.50;99.90;;;;;;4956264;29;19926;-87
2022/03/31 04:23:28;;;;;;;;;;;2.30;99.90;;;;;;4956530;29;19934;-87
2022/03/31 04:25:55;;;;;;;;;;;2.40;99.90;;;;;;4956266;29;19927;-88
2022/03/31 04:28:22;;;;;;;;;;;1.80;99.90;;;;;;4974530;28;19950;-87
2022/03/31 04:30:50;;;;;;;;;;;1.70;99.90;;;;;;4970448;29;19934;-86
2022/03/31 04:33:17;;;;;;;;;;;1.60;99.90;;;;;;4971164;29;20448;-87
2022/03/31 04:35:44;;;;;;;;;;;1.60;99.90;;;;;;4981611;28;19926;-85
2022/03/31 04:38:10;;;;;;;;;;;1.60;99.90;;;;;;4992682;28;19950;-86
2022/03/31 04:40:37;;;;;;;;;;;2.50;99.90;;;;;;4978685;28;20021;-87
2022/03/31 04:43:04;;;;;;;;;;;2.10;99.90;;;;;;4976549;28;19929;-86
2022/03/31 04:45:31;;;;;;;;;;;1.70;99.90;;;;;;4966668;28;20415;-87
2022/03/31 04:47:59;;;;;;;;;;;1.50;99.90;;;;;;4956453;29;19974;-88
2022/03/31 04:50:26;;;;;;;;;;;1.70;99.90;;;;;;4956502;29;20524;-86
2022/03/31 04:52:53;;;;;;;;;;;3.30;99.90;;;;;;4955676;29;19974;-87
2022/03/31 04:55:20;;;;;;;;;;;1.80;99.90;;;;;;4962500;28;20270;-87
2022/03/31 04:57:47;;;;;;;;;;;2.10;99.90;;;;;;4975285;28;19989;-86
2022/03/31 05:00:14;;;;;;;;;;;2.40;99.90;;;;;;4975375;28;19981;-87
2022/03/31 05:02:41;;;;;;;;;;;1.90;99.90;;;;;;4974831;28;19926;-87
2022/03/31 05:05:09;;;;;;;;;;;1.70;99.90;;;;;;4958380;28;19933;-86
2022/03/31 05:07:36;;;;;;;;;;;1.90;99.90;;;;;;4955684;29;20379;-87
2022/03/31 05:10:03;;;;;;;;;;;3.10;99.90;;;;;;4956177;29;19959;-87
2022/03/31 05:12:30;;;;;;;;;;;2.40;99.90;;;;;;4955785;29;19931;-87
2022/03/31 05:14:57;;;;;;;;;;;2.10;99.90;;;;;;4959587;28;19937;-87
2022/03/31 05:17:24;;;;;;;;;;;2.50;99.90;;;;;;4956145;29;19926;-87
2022/03/31 05:19:51;;;;;;;;;;;2.00;99.90;;;;;;4955208;29;19974;-86
2022/03/31 05:22:19;;;;;;;;;;;0.50;99.90;;;;;;4956222;28;19982;-87
2022/03/31 05:24:46;;;;;;;;;;;4.10;99.90;;;;;;4969243;28;19926;-86
2022/03/31 05:27:12;;;;;;;;;;;1.40;99.90;;;;;;4978795;28;19926;-88
2022/03/31 05:29:39;;;;;;;;;;;2.90;99.90;;;;;;4968147;28;19926;-86
2022/03/31 05:32:07;;;;;;;;;;;1.80;99.90;;;;;;4959456;29;19927;-87
2022/03/31 05:34:34;;;;;;;;;;;1.90;99.90;;;;;;4959875;28;19927;-86
2022/03/31 05:37:02;;;;;;;;;;;2.20;99.90;;;;;;4959884;29;19926;-86
2022/03/31 05:39:30;;;;;;;;;;;1.90;99.90;;;;;;4959051;29;19926;-87
2022/03/31 05:41:57;;;;;;;;;;;3.60;99.90;;;;;;4958587;29;20355;-86
2022/03/31 05:44:23;;;;;;;;;;;2.20;99.90;;;;;;4947787;28;20005;-87
2022/03/31 05:46:56;;;;;;;;;;;2.90;99.90;;;;;;4978674;28;19961;-87
2022/03/31 05:49:23;;;;;;;;;;;1.90;99.90;;;;;;4978699;28;19933;-86
2022/03/31 05:51:50;;;;;;;;;;;2.40;99.90;;;;;;4978569;28;19934;-86
2022/03/31 05:54:17;;;;;;;;;;;2.10;99.90;;;;;;4969434;28;20393;-86
2022/03/31 05:56:45;;;;;;;;;;;3.10;99.90;;;;;;4958804;28;19926;-87
2022/03/31 05:59:15;;;;;;;;;;;2.50;99.90;;;;;;4959126;29;19927;-87
2022/03/31 06:01:42;;;;;;;;;;;0.80;99.90;;;;;;4959216;29;19926;-86
2022/03/31 06:04:09;;;;;;;;;;;2.90;99.90;;;;;;4941621;29;19927;-86
2022/03/31 06:06:36;;;;;;;;;;;0.20;99.90;;;;;;4958935;29;19926;-86
2022/03/31 06:09:03;;;;;;;;;;;2.40;99.90;;;;;;4958703;29;19927;-86
2022/03/31 06:11:30;;;;;;;;;;;2.30;99.90;;;;;;4958421;29;19926;-87
2022/03/31 06:13:59;;;;;;;;;;;2.60;99.90;;;;;;4964540;28;20292;-87
2022/03/31 06:16:25;;;;;;;;;;;2.30;99.90;;;;;;4977922;28;20324;-86
2022/03/31 06:18:52;;;;;;;;;;;2.20;99.90;;;;;;4977851;28;19926;-87
2022/03/31 06:21:19;;;;;;;;;;;2.20;99.90;;;;;;4978428;28;19955;-87
2022/03/31 06:23:46;;;;;;;;;;;2.40;99.90;;;;;;4974816;28;19981;-87
2022/03/31 06:26:12;;;;;;;;;;;3.10;99.90;;;;;;4972033;28;19926;-88
2022/03/31 06:28:39;;;;;;;;;;;2.40;99.90;;;;;;4975290;28;20001;-87
2022/03/31 06:31:07;;;;;;;;;;;1.90;99.90;;;;;;4958565;29;19930;-88
2022/03/31 06:33:34;;;;;;;;;;;2.60;99.90;;;;;;4960196;28;19937;-88
2022/03/31 06:36:01;;;;;;;;;;;3.60;99.90;;;;;;4977565;28;20392;-89
2022/03/31 06:38:28;;;;;;;;;;;3.80;99.90;;;;;;4977826;28;19930;-88
2022/03/31 06:41:07;;;;;;;;;;;4.60;99.90;;;;;;4975403;28;19926;-87
2022/03/31 06:43:34;;;;;;;;;;;2.80;99.90;;;;;;4959316;29;20325;-88
2022/03/31 06:46:01;;;;;;;;;;;2.10;99.90;;;;;;4958258;29;19931;-87
2022/03/31 06:48:30;;;;;;;;;;;3.50;99.90;;;;;;4957305;29;19942;-86
2022/03/31 06:50:56;;;;;;;;;;;2.50;99.90;;;;;;4960231;28;20024;-87
2022/03/31 06:53:23;;;;;;;;;;;3.10;99.90;;;;;;4968753;29;19927;-87
2022/03/31 06:55:50;;;;;;;;;;;4.50;99.90;;;;;;4971520;29;19934;-87
2022/03/31 06:58:25;;;;;;;;;;;4.10;99.90;;;;;;4970488;29;19939;-87
2022/03/31 07:00:52;;;;;;;;;;;2.60;99.90;;;;;;4964584;28;19933;-87
2022/03/31 07:03:19;;;;;;;;;;;4.60;99.90;;;;;;4961565;29;20326;-88
2022/03/31 07:05:49;;;;;;;;;;;3.00;99.90;;;;;;4960039;28;20365;-86
2022/03/31 07:08:17;;;;;;;;;;;2.80;99.90;;;;;;4959186;29;19926;-87
2022/03/31 07:10:45;;;;;;;;;;;3.30;99.90;;;;;;4958586;28;19938;-88
2022/03/31 07:13:12;;;;;;;;;;;2.80;99.90;;;;;;4960543;28;19949;-86
2022/03/31 07:15:44;;;;;;;;;;;3.50;99.90;;;;;;4976979;28;20368;-88
2022/03/31 07:18:11;;;;;;;;;;;2.80;99.90;;;;;;4976501;28;20060;-88
2022/03/31 07:20:38;;;;;;;;;;;3.00;99.90;;;;;;4964974;28;19985;-86
2022/03/31 07:23:19;;;;;;;;;;;3.10;99.90;;;;;;4951265;28;19930;-87
2022/03/31 07:25:46;;;;;;;;;;;3.40;99.90;;;;;;4973437;28;19926;-87
2022/03/31 07:28:14;;;;;;;;;;;2.50;99.90;;;;;;4958703;28;19930;-86
2022/03/31 07:30:40;;;;;;;;;;;3.20;99.90;;;;;;4952672;29;20301;-87
2022/03/31 07:33:08;;;;;;;;;;;4.00;99.90;;;;;;4961593;28;20252;-87
2022/03/31 07:35:37;;;;;;;;;;;3.40;99.90;;;;;;4963280;28;19997;-86
2022/03/31 07:38:07;;;;;;;;;;;3.50;99.90;;;;;;4958530;28;20061;-86
2022/03/31 07:40:36;;;;;;;;;;;3.10;99.90;;;;;;4972529;28;20069;-86
2022/03/31 07:43:04;;;;;;;;;;;2.60;99.90;;;;;;4956163;29;19977;-84
2022/03/31 07:45:31;;;;;;;;;;;1.70;99.90;;;;;;4958938;28;20345;-86
2022/03/31 07:47:58;;;;;;;;;;;3.50;99.90;;;;;;4969412;28;19953;-85
2022/03/31 07:50:25;;;;;;;;;;;3.60;99.90;;;;;;4961081;28;19926;-85
2022/03/31 07:52:53;;;;;;;;;;;4.70;99.90;;;;;;4956569;28;19957;-88
2022/03/31 07:55:21;;;;;;;;;;;3.60;99.90;;;;;;4955252;28;20274;-87
2022/03/31 07:57:50;;;;;;;;;;;3.40;99.90;;;;;;4961316;28;19935;-87
2022/03/31 08:00:18;;;;;;;;;;;3.60;99.90;;;;;;4968563;28;20016;-88
2022/03/31 08:02:46;;;;;;;;;;;3.60;99.90;;;;;;4965594;28;19972;-84
2022/03/31 08:05:15;;;;;;;;;;;3.00;99.90;;;;;;4964772;28;19926;-86
2022/03/31 08:07:42;;;;;;;;;;;3.50;99.90;;;;;;4970209;28;19934;-86
2022/03/31 08:10:09;;;;;;;;;;;3.60;99.90;;;;;;4964020;28;19985;-88
2022/03/31 08:12:36;;;;;;;;;;;3.50;99.90;;;;;;4963902;28;19992;-87
2022/03/31 08:15:05;;;;;;;;;;;3.60;99.90;;;;;;4970342;28;19933;-85
2022/03/31 08:17:32;;;;;;;;;;;3.70;99.90;;;;;;4966824;28;19933;-86
2022/03/31 08:19:59;;;;;;;;;;;3.30;99.90;;;;;;4963591;28;19934;-86
2022/03/31 08:22:26;;;;;;;;;;;3.90;99.90;;;;;;4964755;28;19926;-85
2022/03/31 08:24:55;;;;;;;;;;;4.20;99.90;;;;;;4968549;28;19946;-87
2022/03/31 08:27:22;;;;;;;;;;;2.90;99.90;;;;;;4958948;28;19964;-86
2022/03/31 08:29:49;;;;;;;;;;;4.20;99.90;;;;;;4966628;28;19981;-85
2022/03/31 08:32:17;;;;;;;;;;;4.10;99.90;;;;;;4964427;28;19984;-86
2022/03/31 08:34:44;;;;;;;;;;;4.30;99.90;;;;;;4928493;28;19933;-87
2022/03/31 08:37:11;;;;;;;;;;;4.90;99.90;;;;;;4949189;28;19927;-86
2022/03/31 08:39:37;;;;;;;;;;;4.30;99.90;;;;;;4965550;28;19930;-85
2022/03/31 08:42:04;;;;;;;;;;;4.30;99.90;;;;;;4964350;28;19949;-85
2022/03/31 08:44:32;;;;;;;;;;;4.70;99.90;;;;;;4961535;28;19926;-85
2022/03/31 08:46:59;;;;;;;;;;;4.40;99.90;;;;;;4948646;28;19982;-84
2022/03/31 08:49:31;;;;;;;;;;;6.20;99.90;;;;;;4927637;28;20001;-87
2022/03/31 08:51:58;;;;;;;;;;;4.50;99.90;;;;;;4965578;28;19941;-86
2022/03/31 08:54:25;;;;;;;;;;;3.60;99.90;;;;;;4953678;28;20379;-86
2022/03/31 08:56:54;;;;;;;;;;;5.20;99.90;;;;;;4963397;28;20013;-86
2022/03/31 08:59:21;;;;;;;;;;;4.60;99.90;;;;;;4944078;28;19961;-87
2022/03/31 09:01:48;;;;;;;;;;;4.50;99.90;;;;;;4963358;28;19961;-88
2022/03/31 09:04:21;;;;;;;;;;;4.60;99.90;;;;;;4969764;28;19926;-88
2022/03/31 09:07:01;;;;;;;;;;;4.90;99.90;;;;;;4910714;28;19937;-88
2022/03/31 09:09:28;;;;;;;;;;;4.30;99.90;;;;;;4968415;28;20049;-89
2022/03/31 09:11:55;;;;;;;;;;;5.00;99.90;;;;;;4969079;28;19941;-87
2022/03/31 09:16:50;;;;;;;;;;;4.90;99.90;;;;;;4980761;23;19990;-87
2022/03/31 09:19:17;;;;;;;;;;;5.20;99.90;;;;;;4931654;28;19926;-86
2022/03/31 09:24:15;;;;;;;;;;;6.80;99.90;;;;;;5531046;23;20388;-84
2022/03/31 09:26:45;;;;;;;;;;;4.80;99.90;;;;;;4989337;28;19926;-88
2022/03/31 09:29:14;;;;;;;;;;;6.30;99.90;;;;;;4978942;28;19926;-85
2022/03/31 09:31:41;;;;;;;;;;;5.60;99.90;;;;;;4984703;28;19930;-85
2022/03/31 09:34:09;;;;;;;;;;;4.80;99.90;;;;;;4982169;28;20685;-85
2022/03/31 09:36:36;;;;;;;;;;;3.20;99.90;;;;;;4977803;28;19926;-85
2022/03/31 09:39:05;;;;;;;;;;;5.50;99.90;;;;;;4985083;28;19972;-86
2022/03/31 09:41:35;;;;;;;;;;;5.10;99.90;;;;;;4981596;28;20426;-85
2022/03/31 09:44:03;;;;;;;;;;;4.80;99.90;;;;;;4981690;28;19977;-87
2022/03/31 09:46:33;;;;;;;;;;;4.80;99.90;;;;;;4987306;28;19930;-86
2022/03/31 09:49:01;;;;;;;;;;;5.20;99.90;;;;;;4978210;28;19933;-86
2022/03/31 09:51:27;;;;;;;;;;;5.00;99.90;;;;;;4983704;28;20401;-89
2022/03/31 09:53:55;;;;;;;;;;;5.40;99.90;;;;;;4986294;28;19927;-88
2022/03/31 09:56:24;;;;;;;;;;;2.60;99.90;;;;;;4985755;28;19937;-85
2022/03/31 09:58:53;;;;;;;;;;;4.80;99.90;;;;;;4982253;28;19974;-87
2022/03/31 10:01:20;;;;;;;;;;;5.20;99.90;;;;;;4986657;28;19961;-86
2022/03/31 10:03:48;;;;;;;;;;;5.30;99.90;;;;;;4991556;28;19929;-87
2022/03/31 10:06:16;;;;;;;;;;;5.40;99.90;;;;;;4977371;28;20028;-86
2022/03/31 10:08:45;;;;;;;;;;;5.30;99.90;;;;;;4977699;28;20008;-86
2022/03/31 10:11:12;;;;;;;;;;;5.70;99.90;;;;;;4984508;28;19934;-86
2022/03/31 10:13:45;;;;;;;;;;;5.30;99.90;;;;;;4985328;28;19949;-88
2022/03/31 10:16:16;;;;;;;;;;;5.40;99.90;;;;;;4994179;28;20295;-88
2022/03/31 10:18:47;;;;;;;;;;;6.00;99.90;;;;;;4995574;28;20041;-86
2022/03/31 10:21:26;;;;;;;;;;;5.50;99.90;;;;;;4996932;28;20024;-88
2022/03/31 10:26:40;;;;;;;;;;;5.60;99.90;;;;;;4993004;28;20016;-87
2022/03/31 10:29:11;;;;;;;;;;;5.40;99.90;;;;;;4995530;28;19933;-88
2022/03/31 10:31:40;;;;;;;;;;;5.60;99.90;;;;;;4987904;28;19926;-90
2022/03/31 10:34:11;;;;;;;;;;;8.30;99.90;;;;;;4994786;28;19959;-89
2022/03/31 10:36:39;;;;;;;;;;;5.60;99.90;;;;;;4990698;28;19930;-89
2022/03/31 10:39:08;;;;;;;;;;;5.90;99.90;;;;;;4991898;28;19930;-89
2022/03/31 10:41:37;;;;;;;;;;;5.70;99.90;;;;;;4990705;28;20383;-85
2022/03/31 10:44:04;;;;;;;;;;;6.10;99.40;;;;;;4990430;28;19968;-87
2022/03/31 10:46:32;;;;;;;;;;;6.80;99.90;;;;;;4993974;28;19948;-90
2022/03/31 10:49:04;;;;;;;;;;;5.80;99.90;;;;;;4994244;28;19968;-90
2022/03/31 10:51:32;;;;;;;;;;;5.90;98.50;;;;;;4992149;28;19937;-88
2022/03/31 10:53:59;;;;;;;;;;;7.70;98.90;;;;;;4994894;28;19949;-88
2022/03/31 10:56:27;;;;;;;;;;;6.40;99.00;;;;;;4993918;28;20006;-88
2022/03/31 10:58:55;;;;;;;;;;;6.00;98.30;;;;;;4996060;28;19926;-90
2022/03/31 11:01:22;;;;;;;;;;;6.20;98.50;;;;;;4991894;28;19929;-89
2022/03/31 11:03:54;;;;;;;;;;;6.90;98.10;;;;;;4996602;28;20031;-88
2022/03/31 11:06:23;;;;;;;;;;;6.20;96.60;;;;;;4992773;28;20044;-87
2022/03/31 11:08:50;;;;;;;;;;;6.70;97.00;;;;;;4990415;28;19944;-88
2022/03/31 11:11:20;;;;;;;;;;;6.40;96.10;;;;;;4983481;28;20628;-90
2022/03/31 11:13:48;;;;;;;;;;;6.60;95.60;;;;;;4988456;28;20388;-90
2022/03/31 11:16:15;;;;;;;;;;;6.60;94.60;;;;;;4985986;28;19953;-89
2022/03/31 11:18:43;;;;;;;;;;;6.90;94.00;;;;;;4983144;28;19926;-87
2022/03/31 11:21:10;;;;;;;;;;;7.00;94.40;;;;;;4980325;28;19992;-86
2022/03/31 11:23:45;;;;;;;;;;;6.20;94.60;;;;;;4983802;28;19934;-86
2022/03/31 11:26:15;;;;;;;;;;;6.70;93.90;;;;;;4980624;28;20760;-90
2022/03/31 11:28:46;;;;;;;;;;;8.30;95.40;;;;;;4979862;28;20016;-88
2022/03/31 11:31:20;;;;;;;;;;;5.60;92.50;;;;;;4983145;28;19930;-89
2022/03/31 11:33:47;;;;;;;;;;;6.50;93.30;;;;;;4984951;28;20388;-88
2022/03/31 11:36:17;;;;;;;;;;;7.70;95.40;;;;;;4987560;28;19976;-90
2022/03/31 11:38:55;;;;;;;;;;;7.60;93.70;;;;;;4987467;28;19982;-90
2022/03/31 11:41:22;;;;;;;;;;;7.90;93.00;;;;;;4984554;28;19926;-90
2022/03/31 11:43:56;;;;;;;;;;;7.50;93.90;;;;;;4987901;28;20309;-88
2022/03/31 11:46:23;;;;;;;;;;;7.50;95.30;;;;;;4993966;28;19972;-88
2022/03/31 11:48:52;;;;;;;;;;;7.80;93.00;;;;;;4989847;28;19952;-89
2022/03/31 11:51:20;;;;;;;;;;;6.70;94.10;;;;;;4996947;28;19962;-89
2022/03/31 11:53:48;;;;;;;;;;;7.20;93.60;;;;;;4989941;28;19941;-90
2022/03/31 11:56:21;;;;;;;;;;;6.80;93.90;;;;;;4990768;28;19957;-88
2022/03/31 11:58:49;;;;;;;;;;;7.10;92.40;;;;;;4984258;28;19926;-89
2022/03/31 12:01:25;;;;;;;;;;;7.30;93.50;;;;;;4983048;28;19936;-91
2022/03/31 12:03:53;;;;;;;;;;;8.20;95.50;;;;;;4991859;28;19925;-88
2022/03/31 12:06:21;;;;;;;;;;;7.30;93.50;;;;;;4985348;28;19926;-88
2022/03/31 12:08:47;;;;;;;;;;;7.00;93.00;;;;;;4984341;28;19933;-90
2022/03/31 12:11:21;;;;;;;;;;;7.40;95.30;;;;;;4992558;28;20068;-88
2022/03/31 12:13:57;;;;;;;;;;;7.50;92.30;;;;;;4992755;28;19926;-89
2022/03/31 12:16:24;;;;;;;;;;;7.00;94.60;;;;;;4988670;28;19929;-87
2022/03/31 12:18:55;;;;;;;;;;;7.10;95.00;;;;;;4982928;28;19953;-86
2022/03/31 12:21:23;;;;;;;;;;;6.80;92.80;;;;;;4978681;28;19930;-88
2022/03/31 12:23:50;;;;;;;;;;;7.00;92.80;;;;;;4954000;28;20016;-85
2022/03/31 12:26:21;;;;;;;;;;;7.00;93.10;;;;;;4945027;28;19937;-89
2022/03/31 12:28:48;;;;;;;;;;;7.10;93.70;;;;;;4968462;28;20403;-86
2022/03/31 12:31:23;;;;;;;;;;;7.20;93.30;;;;;;4978535;28;20450;-86
2022/03/31 12:33:57;;;;;;;;;;;7.80;92.10;;;;;;4981188;28;19930;-87
2022/03/31 12:36:26;;;;;;;;;;;7.50;93.20;;;;;;4983860;28;19965;-87
2022/03/31 12:38:53;;;;;;;;;;;7.80;92.60;;;;;;4978302;28;19930;-89
2022/03/31 12:41:25;;;;;;;;;;;7.90;94.30;;;;;;4980776;28;19945;-88
2022/03/31 12:43:56;;;;;;;;;;;7.70;93.10;;;;;;4984645;28;19925;-87
2022/03/31 12:46:26;;;;;;;;;;;7.70;91.80;;;;;;4983215;28;19926;-86
2022/03/31 12:48:56;;;;;;;;;;;7.50;92.50;;;;;;4979825;28;19930;-86
2022/03/31 12:51:23;;;;;;;;;;;8.10;91.60;;;;;;4981132;28;19929;-87
2022/03/31 12:53:53;;;;;;;;;;;7.80;91.90;;;;;;4978661;28;22411;-86
2022/03/31 12:56:30;;;;;;;;;;;7.80;91.70;;;;;;4981401;28;19926;-87
2022/03/31 13:01:57;;;;;;;;;;;7.30;91.40;;;;;;4929510;28;20044;-89
2022/03/31 13:04:28;;;;;;;;;;;8.00;91.50;;;;;;4981584;28;20568;-89
2022/03/31 13:06:59;;;;;;;;;;;7.60;91.80;;;;;;4977505;28;20465;-90
2022/03/31 13:09:27;;;;;;;;;;;7.50;93.00;;;;;;4962651;28;20375;-88
2022/03/31 13:12:03;;;;;;;;;;;7.40;92.20;;;;;;4988235;28;19942;-87
2022/03/31 13:14:32;;;;;;;;;;;7.60;92.30;;;;;;4986119;28;19970;-86
2022/03/31 13:16:59;;;;;;;;;;;6.80;91.60;;;;;;4987493;28;19988;-88
2022/03/31 13:19:26;;;;;;;;;;;8.40;91.70;;;;;;4985657;28;19926;-88
2022/03/31 13:21:56;;;;;;;;;;;7.60;92.00;;;;;;4985395;28;19982;-88
2022/03/31 13:24:23;;;;;;;;;;;7.60;91.20;;;;;;4977875;28;19926;-87
2022/03/31 13:26:50;;;;;;;;;;;7.60;92.80;;;;;;4985776;28;19963;-87
2022/03/31 13:29:20;;;;;;;;;;;7.60;91.00;;;;;;4970594;28;19934;-86
2022/03/31 13:31:52;;;;;;;;;;;7.00;88.40;;;;;;4983123;28;19926;-88
2022/03/31 13:34:19;;;;;;;;;;;7.90;90.60;;;;;;4984362;28;19934;-89
2022/03/31 13:36:46;;;;;;;;;;;7.90;91.90;;;;;;4985213;28;19934;-88
2022/03/31 13:39:15;;;;;;;;;;;7.60;92.10;;;;;;4990016;28;19932;-88
2022/03/31 13:41:43;;;;;;;;;;;6.10;91.50;;;;;;4989821;28;20303;-89
2022/03/31 13:44:13;;;;;;;;;;;6.30;92.40;;;;;;4987078;28;19926;-87
2022/03/31 13:46:45;;;;;;;;;;;8.50;91.80;;;;;;4991434;28;19940;-87
2022/03/31 13:49:12;;;;;;;;;;;7.80;91.70;;;;;;4984034;28;19933;-89
2022/03/31 13:51:39;;;;;;;;;;;8.10;92.40;;;;;;4985936;28;19933;-86
2022/03/31 13:54:07;;;;;;;;;;;8.00;93.30;;;;;;4986119;28;19933;-85
2022/03/31 13:56:34;;;;;;;;;;;7.60;92.20;;;;;;4990000;28;19981;-87
2022/03/31 14:01:54;;;;;;;;;;;7.60;92.60;;;;;;4999298;28;19954;-88
2022/03/31 14:04:21;;;;;;;;;;;8.30;92.50;;;;;;4998823;28;19997;-89
2022/03/31 14:06:50;;;;;;;;;;;7.80;92.50;;;;;;4995227;28;19930;-88
2022/03/31 14:09:17;;;;;;;;;;;8.10;90.10;;;;;;4997667;28;19926;-88
2022/03/31 14:11:45;;;;;;;;;;;7.60;92.50;;;;;;4996249;28;19929;-86
2022/03/31 14:14:15;;;;;;;;;;;7.60;91.10;;;;;;4994734;28;19937;-86
2022/03/31 14:16:44;;;;;;;;;;;5.00;91.10;;;;;;4991799;28;19949;-88
2022/03/31 14:19:13;;;;;;;;;;;8.00;90.70;;;;;;4992304;28;19914;-88
2022/03/31 14:21:43;;;;;;;;;;;8.40;91.30;;;;;;4998653;28;19933;-87
2022/03/31 14:24:10;;;;;;;;;;;8.10;91.40;;;;;;4992585;28;20575;-88
2022/03/31 14:26:37;;;;;;;;;;;5.10;90.70;;;;;;4993021;28;19933;-83
2022/03/31 14:29:04;;;;;;;;;;;7.90;90.70;;;;;;4993257;28;19937;-87
2022/03/31 14:31:31;;;;;;;;;;;7.90;90.70;;;;;;4994588;28;19976;-88
2022/03/31 14:33:59;;;;;;;;;;;8.00;91.50;;;;;;4983310;28;19926;-88
2022/03/31 14:36:27;;;;;;;;;;;8.80;91.10;;;;;;4985978;28;19973;-85
2022/03/31 14:38:54;;;;;;;;;;;7.80;91.70;;;;;;4981354;28;20380;-86
2022/03/31 14:41:21;;;;;;;;;;;8.10;94.30;;;;;;4985683;28;20379;-88
2022/03/31 14:43:52;;;;;;;;;;;7.80;95.70;;;;;;4985796;28;20580;-87
2022/03/31 14:46:34;;;;;;;;;;;7.90;95.00;;;;;;4988693;28;19926;-88
2022/03/31 14:49:01;;;;;;;;;;;6.20;93.20;;;;;;4987752;28;19953;-87
2022/03/31 14:51:29;;;;;;;;;;;7.80;94.30;;;;;;4989262;28;20028;-85